Moore, Oklahoma
Current Conditions -  °F | °C
As of 12:35 AM on Friday 31 Oct 2014 (Local Time) from KOUN Reporting Station
Clear Clear  
Wind Chill: 55°   Ceiling: Unl
Heat Index: 55°   Visibility: 10mi
Dew Point: 37°   Wind: 12mph
Humidity: 51%   Direction: 360°N
Pressure: 30.23"   Gusts: NA
Location:  35.34°N, 97.48°W
Report Text: KOUN 310535Z AUTO 36010KT 10SM CLR 13/03 A3023 RMK AO2
Loading
Personal Weather Stations






























Interactive Weather Map
Tropical Storm Tracking
New forecast layout! Learn more

10-Day Weather Forecast

Advertisements
Track Severe Weather on mobile